Time;durP1;ratioP1;P1;durP2;ratioP2;P2;SDS_P1;SDS_P2;PMS_P1;PMS_P2;Temp;Humidity;BMP_temperature;BMP_pressure;BME280_temperature;BME280_humidity;BME280_pressure;Samples;Min_cycle;Max_cycle;Signal;HPM_P1;HPM_P2
2022/10/25 00:01:18;;;;;;;44.15;27.40;;;13.80;99.90;;;;;;5056910;28;20035;-89
2022/10/25 00:03:44;;;;;;;43.28;25.77;;;13.80;99.90;;;;;;5055077;28;20056;-90
2022/10/25 00:06:11;;;;;;;44.17;26.95;;;13.80;99.90;;;;;;5052430;28;20035;-88
2022/10/25 00:08:37;;;;;;;39.40;25.73;;;13.80;99.90;;;;;;5053882;28;20043;-87
2022/10/25 00:11:03;;;;;;;40.42;25.48;;;13.70;99.90;;;;;;5053620;28;20099;-89
2022/10/25 00:13:29;;;;;;;42.90;25.95;;;13.60;99.90;;;;;;5066057;28;20070;-89
2022/10/25 00:15:54;;;;;;;41.63;26.00;;;13.60;99.90;;;;;;5072520;28;20032;-89
2022/10/25 00:18:20;;;;;;;46.70;25.90;;;13.50;99.90;;;;;;5072999;28;20021;-90
2022/10/25 00:20:46;;;;;;;46.20;25.40;;;13.50;99.90;;;;;;5073221;28;20028;-88
2022/10/25 00:23:12;;;;;;;40.95;26.17;;;13.40;99.90;;;;;;5074393;28;20629;-87
2022/10/25 00:25:38;;;;;;;47.57;28.10;;;13.40;99.90;;;;;;5070811;28;20040;-86
2022/10/25 00:28:04;;;;;;;48.72;27.33;;;13.40;99.90;;;;;;5073434;28;20289;-90
2022/10/25 00:30:30;;;;;;;40.25;26.40;;;13.40;99.90;;;;;;5075545;28;20048;-91
2022/10/25 00:32:56;;;;;;;51.40;29.88;;;13.30;99.90;;;;;;5075451;28;20103;-88
2022/10/25 00:35:22;;;;;;;47.13;28.95;;;13.30;99.90;;;;;;5074090;28;20036;-88
2022/10/25 00:37:49;;;;;;;52.85;30.70;;;13.30;99.90;;;;;;5074622;28;20021;-89
2022/10/25 00:40:15;;;;;;;50.35;29.73;;;13.30;99.90;;;;;;5073734;28;20468;-89
2022/10/25 00:42:40;;;;;;;52.72;29.98;;;13.30;99.90;;;;;;5074064;28;20020;-88
2022/10/25 00:45:25;;;;;;;50.78;30.45;;;13.30;99.90;;;;;;5079192;28;20005;-88
2022/10/25 00:47:55;;;;;;;52.33;29.60;;;13.30;99.90;;;;;;5063896;28;20024;-91
2022/10/25 00:50:27;;;;;;;57.85;31.13;;;13.20;99.90;;;;;;5076120;28;20042;-92
2022/10/25 00:52:58;;;;;;;61.10;32.10;;;13.20;99.90;;;;;;5076984;28;20029;-89
2022/10/25 00:55:26;;;;;;;51.08;30.17;;;13.20;99.90;;;;;;5077850;28;20508;-87
2022/10/25 00:58:03;;;;;;;72.05;46.53;;;13.20;99.90;;;;;;5078816;28;20375;-88
2022/10/25 01:00:29;;;;;;;76.10;47.53;;;13.20;99.90;;;;;;5076149;28;20051;-90
2022/10/25 01:02:54;;;;;;;55.08;31.48;;;13.20;99.90;;;;;;5076892;28;20021;-91
2022/10/25 01:05:22;;;;;;;60.45;30.50;;;13.10;99.90;;;;;;5076152;28;20025;-90
2022/10/25 01:07:48;;;;;;;55.50;30.73;;;13.10;99.90;;;;;;5075728;28;20040;-88
2022/10/25 01:10:14;;;;;;;52.15;29.90;;;13.10;99.90;;;;;;5075550;28;20541;-91
2022/10/25 01:12:40;;;;;;;53.80;31.52;;;13.00;99.90;;;;;;5077684;28;20039;-89
2022/10/25 01:15:07;;;;;;;55.75;31.00;;;13.00;99.90;;;;;;5074960;28;20579;-87
2022/10/25 01:17:54;;;;;;;54.50;30.43;;;12.90;99.90;;;;;;5081682;28;20017;-90
2022/10/25 01:20:35;;;;;;;49.20;29.23;;;12.90;99.90;;;;;;5081826;28;20455;-87
2022/10/25 01:23:42;;;;;;;54.67;30.98;;;12.90;99.90;;;;;;5083770;28;20029;-88
2022/10/25 01:26:41;;;;;;;57.35;29.33;;;12.90;99.90;;;;;;5004725;28;20123;-89
2022/10/25 01:29:37;;;;;;;57.15;30.95;;;12.70;99.90;;;;;;5082732;28;20020;-88
2022/10/25 01:32:31;;;;;;;53.03;31.85;;;12.70;99.90;;;;;;5083766;28;20035;-90
2022/10/25 01:35:27;;;;;;;58.90;32.88;;;12.70;99.90;;;;;;5055414;28;20055;-89
2022/10/25 01:38:07;;;;;;;61.15;32.22;;;12.70;99.90;;;;;;5116628;22;20008;-53
2022/10/25 01:41:00;;;;;;;57.50;30.75;;;12.60;99.90;;;;;;5096518;28;20035;-52
2022/10/25 01:43:40;;;;;;;57.80;32.30;;;12.70;99.90;;;;;;5078980;28;20123;-53
2022/10/25 01:46:24;;;;;;;56.35;31.88;;;12.60;99.90;;;;;;5096724;28;20387;-52
2022/10/25 01:48:58;;;;;;;57.33;33.15;;;12.60;99.90;;;;;;5096529;28;20109;-52
2022/10/25 01:51:26;;;;;;;56.08;31.88;;;12.60;99.90;;;;;;5096561;28;20023;-54
2022/10/25 01:53:52;;;;;;;57.55;31.42;;;12.70;99.90;;;;;;5096483;28;20081;-52
2022/10/25 01:56:25;;;;;;;61.45;34.05;;;12.60;99.90;;;;;;5096589;28;20119;-52
2022/10/25 01:59:18;;;;;;;66.07;34.38;;;12.70;99.90;;;;;;5096636;28;20038;-51
2022/10/25 02:02:29;;;;;;;61.88;33.17;;;12.70;99.90;;;;;;5096578;28;20451;-52
2022/10/25 02:05:18;;;;;;;56.50;31.00;;;12.60;99.90;;;;;;5071210;28;20036;-53
2022/10/25 02:07:58;;;;;;;55.33;31.40;;;12.60;99.90;;;;;;5044159;28;20047;-51
2022/10/25 02:10:54;;;;;;;57.47;31.73;;;12.70;99.90;;;;;;5087554;28;20099;-51
2022/10/25 02:13:32;;;;;;;56.63;31.88;;;12.70;99.90;;;;;;5092882;28;20035;-51
2022/10/25 02:15:58;;;;;;;56.95;32.78;;;12.70;99.90;;;;;;5096557;28;20548;-52
2022/10/25 02:18:27;;;;;;;59.10;32.28;;;12.70;99.90;;;;;;5096217;28;20028;-52
2022/10/25 02:20:54;;;;;;;56.10;32.03;;;12.60;99.90;;;;;;5096189;28;20054;-52
2022/10/25 02:23:21;;;;;;;62.17;32.50;;;12.60;99.90;;;;;;5096449;28;20039;-52
2022/10/25 02:25:48;;;;;;;57.83;32.13;;;12.50;99.90;;;;;;5095618;28;20487;-52
2022/10/25 02:28:17;;;;;;;62.53;32.65;;;12.50;99.90;;;;;;5089951;28;20332;-53
2022/10/25 02:30:43;;;;;;;61.85;34.53;;;12.50;99.90;;;;;;5072715;28;20383;-52
2022/10/25 02:33:10;;;;;;;61.80;33.03;;;12.50;99.90;;;;;;5072683;28;20498;-52
2022/10/25 02:35:36;;;;;;;63.20;32.22;;;12.50;99.90;;;;;;5072448;28;20047;-52
2022/10/25 02:38:02;;;;;;;57.40;32.05;;;12.30;99.90;;;;;;5072247;28;20058;-52
2022/10/25 02:40:28;;;;;;;54.97;31.35;;;12.30;99.90;;;;;;5072512;28;20072;-53
2022/10/25 02:42:54;;;;;;;55.55;30.40;;;12.20;99.90;;;;;;5072526;28;20371;-52
2022/10/25 02:45:20;;;;;;;54.75;30.30;;;12.20;99.90;;;;;;5072469;28;20033;-52
2022/10/25 02:47:45;;;;;;;53.83;29.80;;;12.20;99.90;;;;;;5072288;28;20029;-52
2022/10/25 02:50:11;;;;;;;61.50;31.65;;;12.10;99.90;;;;;;5072363;28;20652;-53
2022/10/25 02:52:37;;;;;;;56.88;31.45;;;12.00;99.90;;;;;;5072264;28;20577;-52
2022/10/25 02:55:03;;;;;;;48.08;28.25;;;12.00;99.90;;;;;;5072301;28;20067;-53
2022/10/25 02:57:33;;;;;;;51.40;27.58;;;12.00;99.90;;;;;;5072244;28;20029;-53
2022/10/25 02:59:59;;;;;;;57.13;28.45;;;12.00;99.90;;;;;;5072384;28;20112;-52
2022/10/25 03:02:24;;;;;;;55.88;29.92;;;12.00;99.90;;;;;;5072027;28;20111;-52
2022/10/25 03:04:50;;;;;;;50.75;29.02;;;12.00;99.90;;;;;;5076204;28;20020;-52
2022/10/25 03:07:15;;;;;;;49.30;28.67;;;12.00;99.90;;;;;;5073293;28;20078;-55
2022/10/25 03:09:41;;;;;;;49.47;27.02;;;12.00;99.90;;;;;;5072136;28;20123;-52
2022/10/25 03:12:07;;;;;;;51.90;28.88;;;12.00;99.90;;;;;;5072024;28;20025;-53
2022/10/25 03:14:32;;;;;;;55.25;29.48;;;12.00;99.90;;;;;;5072074;28;20380;-52
2022/10/25 03:16:58;;;;;;;59.28;31.13;;;12.00;99.90;;;;;;5071945;28;20526;-51
2022/10/25 03:19:23;;;;;;;52.20;29.27;;;12.00;99.90;;;;;;5071961;28;20021;-52
2022/10/25 03:21:49;;;;;;;59.50;30.42;;;11.90;99.90;;;;;;5071768;28;20514;-52
2022/10/25 03:24:15;;;;;;;57.55;30.92;;;11.90;99.90;;;;;;5072238;28;20024;-53
2022/10/25 03:26:41;;;;;;;53.03;31.35;;;11.90;99.90;;;;;;5071403;28;20474;-52
2022/10/25 03:29:06;;;;;;;54.58;31.33;;;11.90;99.90;;;;;;5071630;28;20023;-53
2022/10/25 03:31:32;;;;;;;59.85;32.22;;;11.90;99.90;;;;;;5071416;28;20383;-52
2022/10/25 03:33:57;;;;;;;64.90;35.50;;;11.90;99.90;;;;;;5071449;28;20086;-52
2022/10/25 03:36:23;;;;;;;65.15;33.67;;;11.90;99.90;;;;;;5071723;28;20032;-52
2022/10/25 03:38:48;;;;;;;71.05;35.90;;;11.80;99.90;;;;;;5071277;28;20102;-52
2022/10/25 03:41:14;;;;;;;68.22;35.92;;;11.80;99.90;;;;;;5070851;28;20028;-54
2022/10/25 03:43:40;;;;;;;70.32;35.08;;;11.80;99.90;;;;;;5071559;28;20095;-53
2022/10/25 03:46:05;;;;;;;67.28;35.58;;;11.80;99.90;;;;;;5071351;28;20024;-53
2022/10/25 03:48:31;;;;;;;68.53;35.60;;;11.90;99.90;;;;;;5071048;28;20027;-52
2022/10/25 03:50:57;;;;;;;58.05;34.90;;;12.00;99.90;;;;;;5071219;28;20468;-52
2022/10/25 03:53:22;;;;;;;64.65;34.47;;;12.00;99.90;;;;;;5071189;28;20028;-52
2022/10/25 03:55:48;;;;;;;68.18;32.90;;;12.00;99.90;;;;;;5071229;28;20396;-51
2022/10/25 03:58:14;;;;;;;60.42;31.98;;;12.10;99.90;;;;;;5070760;28;20070;-53
2022/10/25 04:00:40;;;;;;;61.60;32.28;;;12.10;99.90;;;;;;5071203;28;20081;-52
2022/10/25 04:03:06;;;;;;;60.83;34.22;;;12.10;99.90;;;;;;5070875;28;20103;-51
2022/10/25 04:05:31;;;;;;;54.83;29.98;;;12.20;99.90;;;;;;5078742;28;20031;-52
2022/10/25 04:07:58;;;;;;;50.58;30.25;;;12.20;99.90;;;;;;5091016;28;20032;-52
2022/10/25 04:10:24;;;;;;;56.05;33.67;;;12.30;99.90;;;;;;5090907;28;20475;-53
2022/10/25 04:12:51;;;;;;;50.72;30.60;;;12.30;99.90;;;;;;5091275;28;20032;-53
2022/10/25 04:15:17;;;;;;;57.83;30.27;;;12.30;99.90;;;;;;5072541;28;20043;-51
2022/10/25 04:17:43;;;;;;;48.03;28.30;;;12.40;99.90;;;;;;5090927;28;20468;-53
2022/10/25 04:20:09;;;;;;;55.25;28.05;;;12.40;99.90;;;;;;5090964;28;20051;-52
2022/10/25 04:22:35;;;;;;;51.58;28.20;;;12.40;99.90;;;;;;5091087;28;20024;-53
2022/10/25 04:25:01;;;;;;;46.75;27.35;;;12.50;99.90;;;;;;5090832;28;20077;-53
2022/10/25 04:27:26;;;;;;;47.15;27.13;;;12.50;99.90;;;;;;5090726;28;20031;-52
2022/10/25 04:29:52;;;;;;;40.72;25.25;;;12.50;99.90;;;;;;5090591;28;20059;-52
2022/10/25 04:32:17;;;;;;;44.88;24.30;;;12.60;99.90;;;;;;5090673;28;20022;-53
2022/10/25 04:34:43;;;;;;;48.60;26.63;;;12.60;99.90;;;;;;5090474;28;20115;-53
2022/10/25 04:37:09;;;;;;;43.00;24.40;;;12.60;99.90;;;;;;5090611;28;20028;-53
2022/10/25 04:39:36;;;;;;;43.67;24.13;;;12.60;99.90;;;;;;5090325;28;20097;-53
2022/10/25 04:42:01;;;;;;;47.65;25.48;;;12.70;99.90;;;;;;5090474;28;20058;-53
2022/10/25 04:44:27;;;;;;;40.72;24.42;;;12.60;99.90;;;;;;5090244;28;20063;-52
2022/10/25 04:46:52;;;;;;;42.03;22.60;;;12.70;99.90;;;;;;5090555;28;20035;-53
2022/10/25 04:49:18;;;;;;;46.17;24.35;;;12.70;99.90;;;;;;5090355;28;20107;-51
2022/10/25 04:51:44;;;;;;;43.33;23.75;;;12.70;99.90;;;;;;5090052;28;20423;-53
2022/10/25 04:54:11;;;;;;;44.33;24.92;;;12.70;99.90;;;;;;5090354;28;20035;-52
2022/10/25 04:56:37;;;;;;;41.83;22.90;;;12.70;99.90;;;;;;5089983;28;20028;-52
2022/10/25 04:59:03;;;;;;;40.50;22.80;;;12.70;99.90;;;;;;5089953;28;20099;-53
2022/10/25 05:01:28;;;;;;;44.80;25.17;;;12.70;99.90;;;;;;5090280;28;20032;-52
2022/10/25 05:03:54;;;;;;;42.13;24.98;;;12.80;99.90;;;;;;5090354;28;20070;-52
2022/10/25 05:06:22;;;;;;;37.35;22.45;;;12.80;99.90;;;;;;5075901;28;20474;-52
2022/10/25 05:08:49;;;;;;;35.80;21.75;;;12.80;99.90;;;;;;5070276;28;20051;-53
2022/10/25 05:11:17;;;;;;;39.08;21.98;;;12.80;99.90;;;;;;5070055;28;20111;-53
2022/10/25 05:13:43;;;;;;;40.75;23.23;;;12.80;99.90;;;;;;5069571;28;20128;-52
2022/10/25 05:16:16;;;;;;;42.75;23.17;;;12.80;99.90;;;;;;5069915;28;20029;-52
2022/10/25 05:18:44;;;;;;;39.22;21.90;;;12.80;99.90;;;;;;5070032;28;20025;-53
2022/10/25 05:21:11;;;;;;;54.20;21.60;;;12.80;99.90;;;;;;5069975;28;20037;-53
2022/10/25 05:23:36;;;;;;;40.83;22.52;;;12.80;99.90;;;;;;5069846;28;20013;-52
2022/10/25 05:26:10;;;;;;;36.08;20.58;;;12.80;99.90;;;;;;5068497;28;20065;-53
2022/10/25 05:28:37;;;;;;;36.25;21.10;;;12.90;99.90;;;;;;5069770;28;20085;-52
2022/10/25 05:31:04;;;;;;;34.42;20.70;;;12.90;99.90;;;;;;5069777;28;20017;-52
2022/10/25 05:33:30;;;;;;;34.07;21.23;;;12.80;99.90;;;;;;5068576;28;20043;-52
2022/10/25 05:35:58;;;;;;;35.00;21.25;;;12.80;99.90;;;;;;5069668;28;20464;-53
2022/10/25 05:38:24;;;;;;;37.33;21.40;;;12.80;99.90;;;;;;5069467;28;20052;-52
2022/10/25 05:40:57;;;;;;;40.15;21.35;;;12.70;99.90;;;;;;5069517;28;20025;-52
2022/10/25 05:43:24;;;;;;;36.08;20.77;;;12.80;99.90;;;;;;5069951;28;20075;-52
2022/10/25 05:45:50;;;;;;;39.85;23.13;;;12.80;99.90;;;;;;5069893;28;20024;-52
2022/10/25 05:48:17;;;;;;;38.22;24.25;;;12.70;99.90;;;;;;5072635;28;20535;-53
2022/10/25 05:50:44;;;;;;;39.80;22.83;;;12.80;99.90;;;;;;5079331;28;20111;-52
2022/10/25 05:53:09;;;;;;;48.55;24.63;;;12.80;99.90;;;;;;5069743;28;20027;-52
2022/10/25 05:55:35;;;;;;;44.83;24.38;;;12.80;99.90;;;;;;5086667;28;20035;-52
2022/10/25 05:58:02;;;;;;;42.75;24.00;;;12.80;99.90;;;;;;5086243;28;20035;-53
2022/10/25 06:00:28;;;;;;;37.55;24.65;;;12.70;99.90;;;;;;5085692;28;20035;-52
2022/10/25 06:02:54;;;;;;;38.08;23.80;;;12.70;99.90;;;;;;5086977;28;20111;-53
2022/10/25 06:05:20;;;;;;;42.22;24.25;;;12.80;99.90;;;;;;5093065;28;20158;-54
2022/10/25 06:07:46;;;;;;;42.40;23.38;;;12.80;99.90;;;;;;5092716;28;20036;-52
2022/10/25 06:10:12;;;;;;;49.05;24.98;;;12.90;99.90;;;;;;5092805;28;20039;-52
2022/10/25 06:12:38;;;;;;;41.45;25.73;;;12.80;99.90;;;;;;5092894;28;20024;-51
2022/10/25 06:15:05;;;;;;;49.60;24.25;;;12.90;99.90;;;;;;5092402;28;20040;-52
2022/10/25 06:17:30;;;;;;;49.67;25.25;;;12.90;99.90;;;;;;5091908;28;20032;-52
2022/10/25 06:19:56;;;;;;;42.45;24.73;;;12.90;99.90;;;;;;5092621;28;20031;-51
2022/10/25 06:22:21;;;;;;;40.20;24.30;;;13.00;99.90;;;;;;5092529;28;20004;-52
2022/10/25 06:24:47;;;;;;;42.15;23.52;;;13.00;99.90;;;;;;5091720;28;20070;-55
2022/10/25 06:27:13;;;;;;;48.40;24.65;;;13.00;99.90;;;;;;5089529;28;20099;-51
2022/10/25 06:29:38;;;;;;;42.42;23.60;;;13.10;99.90;;;;;;5074302;28;20060;-51
2022/10/25 06:32:04;;;;;;;41.35;24.13;;;13.10;99.90;;;;;;5092578;28;20024;-50
2022/10/25 06:34:29;;;;;;;38.00;22.80;;;13.10;99.90;;;;;;5091844;28;20032;-51
2022/10/25 06:36:55;;;;;;;42.58;24.42;;;13.00;99.90;;;;;;5092213;28;20111;-51
2022/10/25 06:39:21;;;;;;;39.80;23.33;;;13.00;99.90;;;;;;5092018;28;20047;-52
2022/10/25 06:41:46;;;;;;;37.45;22.98;;;13.00;99.90;;;;;;5075278;28;20032;-53
2022/10/25 06:44:12;;;;;;;41.72;24.13;;;13.00;99.90;;;;;;5072497;28;20063;-53
2022/10/25 06:46:39;;;;;;;36.05;23.33;;;13.00;99.90;;;;;;5074413;28;20138;-52
2022/10/25 06:49:05;;;;;;;42.63;25.05;;;13.00;99.90;;;;;;5073936;28;20439;-52
2022/10/25 06:51:32;;;;;;;39.95;24.88;;;13.00;99.90;;;;;;5091969;28;20039;-51
2022/10/25 06:54:00;;;;;;;41.67;23.60;;;13.00;99.90;;;;;;5092088;28;20502;-51
2022/10/25 06:56:27;;;;;;;36.15;23.05;;;13.00;99.90;;;;;;5092028;28;20059;-51
2022/10/25 06:58:53;;;;;;;43.60;23.90;;;13.00;99.90;;;;;;5092255;28;20078;-55
2022/10/25 07:01:21;;;;;;;41.27;23.80;;;13.00;99.90;;;;;;5075055;28;20566;-52
2022/10/25 07:03:49;;;;;;;38.53;22.02;;;13.00;99.90;;;;;;5072078;28;20016;-54
2022/10/25 07:06:17;;;;;;;34.28;22.17;;;13.10;99.90;;;;;;5072141;28;20043;-54
2022/10/25 07:08:45;;;;;;;40.33;21.05;;;13.10;99.90;;;;;;5071096;28;20025;-52
2022/10/25 07:11:16;;;;;;;33.95;20.85;;;13.10;99.90;;;;;;5071071;28;20047;-52
2022/10/25 07:13:42;;;;;;;30.90;20.15;;;13.20;99.90;;;;;;5070142;28;20025;-52
2022/10/25 07:16:10;;;;;;;32.95;21.05;;;13.10;99.90;;;;;;5071703;28;20162;-52
2022/10/25 07:18:36;;;;;;;35.85;21.92;;;13.20;99.90;;;;;;5070844;28;20074;-52
2022/10/25 07:21:05;;;;;;;33.85;21.88;;;13.30;99.90;;;;;;5070009;28;20028;-52
2022/10/25 07:23:31;;;;;;;35.42;20.77;;;13.30;99.90;;;;;;5069732;28;20017;-52
2022/10/25 07:25:57;;;;;;;34.45;20.60;;;13.30;99.90;;;;;;5070010;28;20559;-53
2022/10/25 07:28:23;;;;;;;32.85;20.42;;;13.30;99.90;;;;;;5071231;28;20053;-52
2022/10/25 07:30:49;;;;;;;28.48;17.25;;;13.30;99.90;;;;;;5091228;28;20368;-53
2022/10/25 07:33:18;;;;;;;29.30;18.92;;;13.30;99.90;;;;;;5072285;28;20039;-52
2022/10/25 07:35:45;;;;;;;27.02;16.48;;;13.20;99.90;;;;;;5090906;28;20046;-52
2022/10/25 07:38:11;;;;;;;;;;;13.20;99.90;;;;;;5091392;28;20027;-52
2022/10/25 07:40:37;;;;;;;29.70;18.42;;;13.30;99.90;;;;;;5090631;28;19916;-53
2022/10/25 07:43:02;;;;;;;28.75;18.65;;;13.20;99.90;;;;;;5090095;28;20020;-53
2022/10/25 07:45:28;;;;;;;267.10;199.52;;;13.20;99.90;;;;;;5079695;28;20067;-52
2022/10/25 07:47:54;;;;;;;33.97;24.67;;;13.20;99.90;;;;;;5074124;28;20025;-52
2022/10/25 07:50:19;;;;;;;30.38;20.23;;;13.10;99.90;;;;;;5091193;28;20391;-53
2022/10/25 07:52:45;;;;;;;35.35;22.17;;;13.00;99.90;;;;;;5087897;28;20750;-51
2022/10/25 07:55:12;;;;;;;32.85;20.95;;;12.90;99.90;;;;;;5088009;28;20062;-53
2022/10/25 07:57:37;;;;;;;33.13;20.00;;;12.80;99.90;;;;;;5083160;28;20468;-52
2022/10/25 08:00:08;;;;;;;37.45;22.40;;;12.80;99.90;;;;;;5085323;28;20061;-53
2022/10/25 08:02:34;;;;;;;32.88;21.20;;;12.70;99.90;;;;;;5084521;28;20360;-53
2022/10/25 08:05:00;;;;;;;37.17;22.35;;;12.60;99.90;;;;;;5083627;28;20483;-52
2022/10/25 08:07:26;;;;;;;34.50;21.13;;;12.70;99.90;;;;;;5091226;28;20109;-53
2022/10/25 08:09:52;;;;;;;36.92;23.05;;;12.60;99.90;;;;;;5089075;28;20678;-53
2022/10/25 08:12:17;;;;;;;38.92;22.80;;;12.60;99.90;;;;;;5088995;28;20526;-52
2022/10/25 08:14:43;;;;;;;34.35;21.40;;;12.60;99.90;;;;;;5086959;28;20032;-51
2022/10/25 08:17:09;;;;;;;31.05;20.25;;;12.60;99.90;;;;;;5087277;28;20028;-53
2022/10/25 08:19:34;;;;;;;35.47;22.13;;;12.60;99.90;;;;;;5088865;28;20130;-52
2022/10/25 08:22:00;;;;;;;39.58;24.40;;;12.60;99.90;;;;;;5088774;28;20103;-53
2022/10/25 08:24:26;;;;;;;44.67;26.75;;;12.60;99.90;;;;;;5088302;28;20024;-53
2022/10/25 08:26:51;;;;;;;44.72;26.70;;;12.60;99.90;;;;;;5088560;28;20032;-52
2022/10/25 08:29:17;;;;;;;45.65;28.23;;;12.70;99.90;;;;;;5086714;28;20460;-52
2022/10/25 08:31:42;;;;;;;48.20;28.58;;;12.70;99.90;;;;;;5088632;28;20031;-53
2022/10/25 08:34:08;;;;;;;49.63;31.00;;;12.80;99.90;;;;;;5088057;28;20078;-53
2022/10/25 08:36:34;;;;;;;51.53;30.42;;;13.10;99.90;;;;;;5088792;28;20024;-55
2022/10/25 08:38:59;;;;;;;43.90;26.70;;;13.20;99.90;;;;;;5088364;28;20066;-52
2022/10/25 08:41:54;;;;;;;40.97;25.92;;;13.20;99.90;;;;;;5088606;28;20391;-53
2022/10/25 08:44:33;;;;;;;40.83;25.42;;;13.20;99.90;;;;;;5087867;28;20035;-51
2022/10/25 08:47:08;;;;;;;39.97;25.60;;;13.30;99.90;;;;;;5066459;28;20043;-52
2022/10/25 08:49:53;;;;;;;45.30;26.52;;;13.30;99.90;;;;;;5048627;28;20075;-52
2022/10/25 08:52:45;;;;;;;44.00;27.50;;;13.20;99.90;;;;;;5066795;28;20028;-54
2022/10/25 08:55:17;;;;;;;45.20;28.13;;;13.20;99.90;;;;;;5066770;28;20086;-53
2022/10/25 08:57:45;;;;;;;42.70;25.70;;;13.20;99.90;;;;;;5067834;28;20025;-54
2022/10/25 09:00:21;;;;;;;37.53;24.83;;;13.20;99.90;;;;;;5069529;28;20047;-52
2022/10/25 09:03:00;;;;;;;36.80;25.30;;;13.30;99.90;;;;;;5069581;28;20483;-52
2022/10/25 09:05:37;;;;;;;41.10;24.33;;;13.30;99.90;;;;;;5069759;28;20042;-52
2022/10/25 09:08:33;;;;;;;37.80;24.17;;;13.30;99.90;;;;;;5069747;28;20021;-51
2022/10/25 09:11:24;;;;;;;33.63;23.27;;;13.40;99.90;;;;;;5063365;28;20024;-51
2022/10/25 09:14:38;;;;;;;33.40;22.67;;;13.50;99.90;;;;;;5051696;28;20024;-53
2022/10/25 09:17:19;;;;;;;29.67;20.45;;;13.70;99.90;;;;;;5045819;28;20479;-53
2022/10/25 09:20:14;;;;;;;30.50;20.10;;;13.80;99.90;;;;;;5069844;28;20069;-52
2022/10/25 09:22:56;;;;;;;34.38;18.73;;;13.90;99.90;;;;;;5068245;28;20036;-51
2022/10/25 09:25:36;;;;;;;26.38;18.58;;;14.20;99.90;;;;;;5067836;28;20042;-51
2022/10/25 09:28:13;;;;;;;24.83;16.23;;;14.30;99.90;;;;;;5068023;28;20036;-51
2022/10/25 09:30:42;;;;;;;24.65;15.32;;;14.80;99.90;;;;;;5068031;28;20032;-52
2022/10/25 09:33:14;;;;;;;24.75;14.40;;;14.80;99.90;;;;;;5067560;28;20494;-51
2022/10/25 09:35:45;;;;;;;26.42;16.13;;;15.00;99.90;;;;;;5068086;28;20040;-53
2022/10/25 09:38:33;;;;;;;23.58;15.60;;;15.60;99.90;;;;;;5071520;28;20078;-52
2022/10/25 09:41:24;;;;;;;24.98;14.65;;;15.30;99.90;;;;;;5073574;28;20032;-55
2022/10/25 09:43:59;;;;;;;26.58;15.00;;;15.30;99.90;;;;;;5073081;28;20033;-51
2022/10/25 09:46:45;;;;;;;29.92;15.93;;;15.20;99.90;;;;;;5088656;28;20032;-53
2022/10/25 09:49:29;;;;;;;22.27;13.77;;;15.20;99.90;;;;;;5093686;28;20036;-53
2022/10/25 09:52:18;;;;;;;24.55;13.23;;;15.40;99.90;;;;;;5075353;28;20387;-52
2022/10/25 09:54:51;;;;;;;22.60;12.45;;;15.70;99.90;;;;;;5093666;28;20028;-52
2022/10/25 09:57:17;;;;;;;21.90;11.65;;;15.80;99.90;;;;;;5093646;28;20082;-53
2022/10/25 09:59:47;;;;;;;21.10;12.60;;;16.00;99.90;;;;;;5093800;28;20375;-52
2022/10/25 10:02:22;;;;;;;19.05;12.15;;;16.50;99.90;;;;;;5093613;28;20028;-52
2022/10/25 10:04:47;;;;;;;20.10;12.32;;;15.80;99.90;;;;;;5093348;28;20059;-53
2022/10/25 10:07:16;;;;;;;24.13;12.65;;;16.00;99.90;;;;;;5093397;28;20471;-54
2022/10/25 10:09:43;;;;;;;21.02;12.10;;;16.20;99.90;;;;;;5074900;28;20657;-53
2022/10/25 10:12:21;;;;;;;18.17;11.07;;;16.00;99.90;;;;;;5093580;28;20046;-54
2022/10/25 10:14:58;;;;;;;17.02;9.52;;;16.20;99.90;;;;;;5092995;28;20040;-53
2022/10/25 10:17:24;;;;;;;14.03;8.13;;;16.00;99.90;;;;;;5093290;28;20105;-54
2022/10/25 10:20:15;;;;;;;17.42;9.40;;;15.60;99.90;;;;;;5092810;28;20475;-54
2022/10/25 10:22:50;;;;;;;14.70;8.30;;;15.60;99.90;;;;;;5092986;28;20043;-53
2022/10/25 10:25:18;;;;;;;17.52;8.77;;;15.60;99.90;;;;;;5092115;28;20032;-51
2022/10/25 10:27:46;;;;;;;13.68;7.32;;;15.60;99.90;;;;;;5072458;28;20028;-53
2022/10/25 10:30:24;;;;;;;16.35;8.68;;;15.40;99.90;;;;;;5072598;28;20024;-52
2022/10/25 10:32:54;;;;;;;;;;;15.50;99.90;;;;;;5072966;28;20036;-51
2022/10/25 10:35:31;;;;;;;18.33;9.93;;;15.60;99.90;;;;;;5072572;28;19936;-52
2022/10/25 10:38:18;;;;;;;15.43;8.13;;;15.40;99.90;;;;;;5072301;28;20020;-52
2022/10/25 10:40:44;;;;;;;16.23;9.07;;;15.40;99.90;;;;;;5072419;28;20103;-53
2022/10/25 10:43:29;;;;;;;12.73;8.38;;;15.40;99.90;;;;;;5072442;28;20115;-53
2022/10/25 10:46:04;;;;;;;18.48;9.13;;;15.50;99.90;;;;;;5082521;28;20074;-52
2022/10/25 10:48:36;;;;;;;24.48;10.90;;;15.60;99.90;;;;;;5091881;28;20028;-51
2022/10/25 10:51:02;;;;;;;17.92;9.93;;;15.80;99.90;;;;;;5074258;28;20496;-53
2022/10/25 10:53:31;;;;;;;15.57;8.15;;;16.00;99.90;;;;;;5092682;28;20050;-51
2022/10/25 10:56:06;;;;;;;16.02;9.10;;;16.20;99.90;;;;;;5092310;28;20487;-52
2022/10/25 10:58:39;;;;;;;18.10;8.52;;;16.40;99.90;;;;;;5092605;28;20028;-52
2022/10/25 11:01:11;;;;;;;16.27;8.30;;;16.80;99.90;;;;;;5092284;28;20511;-52
2022/10/25 11:03:40;;;;;;;14.73;8.05;;;16.80;99.90;;;;;;5091997;28;20027;-52
2022/10/25 11:06:16;;;;;;;16.98;8.27;;;17.30;99.90;;;;;;5091863;28;20039;-51
2022/10/25 11:08:44;;;;;;;16.95;8.57;;;17.40;99.90;;;;;;5073980;28;20454;-52
2022/10/25 11:11:23;;;;;;;17.38;8.30;;;17.30;99.90;;;;;;5092114;28;20035;-51
2022/10/25 11:14:00;;;;;;;17.25;7.35;;;17.20;99.90;;;;;;5091760;28;20054;-53
2022/10/25 11:16:59;;;;;;;14.25;8.15;;;17.40;99.90;;;;;;5092057;28;20048;-52
2022/10/25 11:19:35;;;;;;;11.88;6.75;;;17.60;99.90;;;;;;5092011;28;20122;-51
2022/10/25 11:22:19;;;;;;;15.00;7.10;;;17.50;99.90;;;;;;5091975;28;20036;-53
2022/10/25 11:24:48;;;;;;;13.32;8.63;;;17.50;99.90;;;;;;5092158;28;20039;-53
2022/10/25 11:27:50;;;;;;;13.13;6.93;;;17.20;99.90;;;;;;5091905;28;20031;-52
2022/10/25 11:30:18;;;;;;;11.13;7.03;;;17.20;99.90;;;;;;5091738;28;20028;-54
2022/10/25 11:32:53;;;;;;;11.32;6.28;;;17.30;99.90;;;;;;5091876;28;20379;-53
2022/10/25 11:35:58;;;;;;;12.90;6.47;;;17.70;99.90;;;;;;5091612;28;20123;-53
2022/10/25 11:39:12;;;;;;;12.57;7.45;;;17.70;99.90;;;;;;5091278;28;20058;-52
2022/10/25 11:41:47;;;;;;;10.63;6.70;;;17.90;99.90;;;;;;5001352;28;20483;-53
2022/10/25 11:44:43;;;;;;;13.70;6.68;;;18.00;99.90;;;;;;5091351;28;20039;-52
2022/10/25 11:47:24;;;;;;;14.02;6.75;;;18.20;99.90;;;;;;5071037;28;20036;-51
2022/10/25 11:49:55;;;;;;;14.45;6.50;;;18.10;99.90;;;;;;5070978;28;20035;-52
2022/10/25 11:52:50;;;;;;;16.13;6.53;;;18.40;99.90;;;;;;5070914;28;20040;-52
2022/10/25 11:55:37;;;;;;;9.80;5.50;;;18.60;99.90;;;;;;4998510;28;20061;-52
2022/10/25 11:58:21;;;;;;;11.35;5.47;;;18.50;99.90;;;;;;5070454;28;20031;-52
2022/10/25 12:01:09;;;;;;;13.98;5.57;;;18.50;99.90;;;;;;5069089;28;20066;-51
2022/10/25 12:03:52;;;;;;;11.43;5.03;;;18.10;99.90;;;;;;5070161;28;20044;-51
2022/10/25 12:06:42;;;;;;;8.57;4.50;;;17.90;99.90;;;;;;5073127;28;20111;-51
2022/10/25 12:09:17;;;;;;;10.35;4.47;;;17.70;99.90;;;;;;5071754;28;20116;-51
2022/10/25 12:11:46;;;;;;;8.40;3.63;;;17.80;99.90;;;;;;5091538;28;20107;-51
2022/10/25 12:14:18;;;;;;;8.25;3.42;;;17.50;99.90;;;;;;5090996;28;20028;-50
2022/10/25 12:16:44;;;;;;;6.47;3.60;;;17.50;99.90;;;;;;5091014;28;20047;-51
2022/10/25 12:19:24;;;;;;;7.35;3.70;;;17.40;99.90;;;;;;5091162;28;20024;-51
2022/10/25 12:22:01;;;;;;;8.20;4.15;;;17.20;99.90;;;;;;5090819;28;20494;-50
2022/10/25 12:24:38;;;;;;;8.30;4.15;;;17.00;99.90;;;;;;5078257;28;20028;-52
2022/10/25 12:27:04;;;;;;;8.68;4.15;;;16.80;99.90;;;;;;5070341;28;20063;-53
2022/10/25 12:29:39;;;;;;;7.55;2.88;;;16.60;99.90;;;;;;5070558;28;20036;-54
2022/10/25 12:32:21;;;;;;;6.25;2.17;;;16.10;99.90;;;;;;5070315;28;20515;-53
2022/10/25 12:34:54;;;;;;;1.67;1.10;;;15.90;99.90;;;;;;5070210;28;20090;-52
2022/10/25 12:37:37;;;;;;;3.65;0.95;;;15.60;99.90;;;;;;5069965;28;20028;-51
2022/10/25 12:40:05;;;;;;;3.13;1.85;;;15.50;99.90;;;;;;5070133;28;20044;-51
2022/10/25 12:42:42;;;;;;;9.05;3.50;;;15.30;99.90;;;;;;5070397;28;20032;-53
2022/10/25 12:45:45;;;;;;;11.50;4.07;;;15.20;99.90;;;;;;5071545;28;20028;-52
2022/10/25 12:48:19;;;;;;;8.98;3.67;;;15.20;99.90;;;;;;5090427;28;20035;-52
2022/10/25 12:51:19;;;;;;;10.77;3.70;;;15.20;99.90;;;;;;5090506;28;20110;-53
2022/10/25 12:54:19;;;;;;;8.75;3.45;;;15.00;99.90;;;;;;5056456;28;20055;-52